sensor_id;sensor_type;location;lat;lon;timestamp;pressure;altitude;pressure_sealevel;temperature;humidity
48364;BME280;34170;54.364;18.582;2022-11-20T00:00:24;99852.81;;;-4.10;100.00
48364;BME280;34170;54.364;18.582;2022-11-20T00:03:12;99860.13;;;-3.96;100.00
48364;BME280;34170;54.364;18.582;2022-11-20T00:05:40;99851.69;;;-4.05;100.00
48364;BME280;34170;54.364;18.582;2022-11-20T00:08:07;99846.31;;;-4.02;100.00
48364;BME280;34170;54.364;18.582;2022-11-20T00:10:39;99858.28;;;-3.94;100.00
48364;BME280;34170;54.364;18.582;2022-11-20T00:13:07;99857.28;;;-3.92;100.00
48364;BME280;34170;54.364;18.582;2022-11-20T00:15:35;99857.91;;;-3.85;100.00
48364;BME280;34170;54.364;18.582;2022-11-20T00:18:02;99860.00;;;-3.93;100.00
48364;BME280;34170;54.364;18.582;2022-11-20T00:20:29;99857.56;;;-3.77;100.00
48364;BME280;34170;54.364;18.582;2022-11-20T00:22:57;99862.63;;;-3.93;100.00
48364;BME280;34170;54.364;18.582;2022-11-20T00:25:24;99849.44;;;-3.71;100.00
48364;BME280;34170;54.364;18.582;2022-11-20T00:27:51;99845.16;;;-3.94;100.00
48364;BME280;34170;54.364;18.582;2022-11-20T00:30:19;99846.50;;;-4.06;100.00
48364;BME280;34170;54.364;18.582;2022-11-20T00:32:46;99847.50;;;-3.88;100.00
48364;BME280;34170;54.364;18.582;2022-11-20T00:35:14;99843.16;;;-4.10;100.00
48364;BME280;34170;54.364;18.582;2022-11-20T00:37:41;99852.19;;;-3.95;100.00
48364;BME280;34170;54.364;18.582;2022-11-20T00:40:09;99848.63;;;-3.94;100.00
48364;BME280;34170;54.364;18.582;2022-11-20T00:42:36;99857.50;;;-3.96;100.00
48364;BME280;34170;54.364;18.582;2022-11-20T00:45:04;99847.44;;;-3.87;100.00
48364;BME280;34170;54.364;18.582;2022-11-20T00:47:31;99856.66;;;-3.76;100.00
48364;BME280;34170;54.364;18.582;2022-11-20T00:49:59;99855.59;;;-3.72;100.00
48364;BME280;34170;54.364;18.582;2022-11-20T00:52:26;99855.25;;;-3.85;100.00
48364;BME280;34170;54.364;18.582;2022-11-20T00:54:54;99858.75;;;-3.85;100.00
48364;BME280;34170;54.364;18.582;2022-11-20T00:57:21;99855.47;;;-3.90;100.00
48364;BME280;34170;54.364;18.582;2022-11-20T00:59:48;99857.91;;;-3.85;100.00
48364;BME280;34170;54.364;18.582;2022-11-20T01:02:15;99852.91;;;-3.91;100.00
48364;BME280;34170;54.364;18.582;2022-11-20T01:04:43;99863.41;;;-3.91;100.00
48364;BME280;34170;54.364;18.582;2022-11-20T01:07:10;99867.22;;;-3.78;100.00
48364;BME280;34170;54.364;18.582;2022-11-20T01:09:38;99865.50;;;-3.99;100.00
48364;BME280;34170;54.364;18.582;2022-11-20T01:12:05;99858.34;;;-3.96;100.00
48364;BME280;34170;54.364;18.582;2022-11-20T01:14:33;99850.47;;;-3.96;100.00
48364;BME280;34170;54.364;18.582;2022-11-20T01:17:00;99862.53;;;-3.92;100.00
48364;BME280;34170;54.364;18.582;2022-11-20T01:19:27;99854.75;;;-3.93;100.00
48364;BME280;34170;54.364;18.582;2022-11-20T01:21:56;99844.38;;;-3.96;100.00
48364;BME280;34170;54.364;18.582;2022-11-20T01:24:23;99847.16;;;-3.79;100.00
48364;BME280;34170;54.364;18.582;2022-11-20T01:26:51;99851.13;;;-3.91;100.00
48364;BME280;34170;54.364;18.582;2022-11-20T01:29:23;99841.06;;;-3.81;100.00
48364;BME280;34170;54.364;18.582;2022-11-20T01:31:52;99854.34;;;-3.84;100.00
48364;BME280;34170;54.364;18.582;2022-11-20T01:34:21;99847.25;;;-3.82;100.00
48364;BME280;34170;54.364;18.582;2022-11-20T01:36:49;99856.84;;;-3.81;100.00
48364;BME280;34170;54.364;18.582;2022-11-20T01:39:26;99856.31;;;-3.89;100.00
48364;BME280;34170;54.364;18.582;2022-11-20T01:41:55;99857.97;;;-3.66;100.00
48364;BME280;34170;54.364;18.582;2022-11-20T01:44:52;99856.47;;;-3.72;100.00
48364;BME280;34170;54.364;18.582;2022-11-20T01:47:45;99857.78;;;-3.82;100.00
48364;BME280;34170;54.364;18.582;2022-11-20T01:52:48;99853.81;;;-3.92;100.00
48364;BME280;34170;54.364;18.582;2022-11-20T01:55:23;99851.31;;;-3.95;100.00
48364;BME280;34170;54.364;18.582;2022-11-20T01:57:51;99843.31;;;-3.92;100.00
48364;BME280;34170;54.364;18.582;2022-11-20T02:00:21;99857.75;;;-3.61;100.00
48364;BME280;34170;54.364;18.582;2022-11-20T02:02:52;99845.69;;;-3.86;100.00
48364;BME280;34170;54.364;18.582;2022-11-20T02:07:55;99852.63;;;-3.85;100.00
48364;BME280;34170;54.364;18.582;2022-11-20T02:10:26;99854.22;;;-3.81;100.00
48364;BME280;34170;54.364;18.582;2022-11-20T02:12:54;99849.63;;;-3.76;100.00
48364;BME280;34170;54.364;18.582;2022-11-20T02:15:40;99851.41;;;-3.76;100.00
48364;BME280;34170;54.364;18.582;2022-11-20T02:18:09;99855.09;;;-3.80;100.00
48364;BME280;34170;54.364;18.582;2022-11-20T02:20:38;99848.44;;;-3.69;100.00
48364;BME280;34170;54.364;18.582;2022-11-20T02:23:13;99860.63;;;-3.88;100.00
48364;BME280;34170;54.364;18.582;2022-11-20T02:25:45;99866.78;;;-3.88;100.00
48364;BME280;34170;54.364;18.582;2022-11-20T02:28:14;99854.34;;;-3.84;100.00
48364;BME280;34170;54.364;18.582;2022-11-20T02:30:42;99864.94;;;-3.86;100.00
48364;BME280;34170;54.364;18.582;2022-11-20T02:33:09;99851.47;;;-3.78;100.00
48364;BME280;34170;54.364;18.582;2022-11-20T02:35:40;99849.94;;;-3.84;100.00
48364;BME280;34170;54.364;18.582;2022-11-20T02:38:08;99847.16;;;-3.79;100.00
48364;BME280;34170;54.364;18.582;2022-11-20T02:40:36;99842.72;;;-3.78;100.00
48364;BME280;34170;54.364;18.582;2022-11-20T02:43:03;99846.81;;;-3.71;100.00
48364;BME280;34170;54.364;18.582;2022-11-20T02:45:31;99851.59;;;-3.81;100.00
48364;BME280;34170;54.364;18.582;2022-11-20T02:47:58;99847.88;;;-3.75;100.00
48364;BME280;34170;54.364;18.582;2022-11-20T02:50:26;99846.19;;;-3.78;100.00
48364;BME280;34170;54.364;18.582;2022-11-20T02:52:53;99846.81;;;-3.71;100.00
48364;BME280;34170;54.364;18.582;2022-11-20T02:55:20;99843.84;;;-3.84;100.00
48364;BME280;34170;54.364;18.582;2022-11-20T02:57:48;99834.78;;;-3.77;100.00
48364;BME280;34170;54.364;18.582;2022-11-20T03:00:15;99841.88;;;-3.79;100.00
48364;BME280;34170;54.364;18.582;2022-11-20T03:02:42;99830.28;;;-3.95;100.00
48364;BME280;34170;54.364;18.582;2022-11-20T03:05:10;99823.78;;;-3.87;100.00
48364;BME280;34170;54.364;18.582;2022-11-20T03:07:37;99832.16;;;-3.77;100.00
48364;BME280;34170;54.364;18.582;2022-11-20T03:10:05;99831.28;;;-3.57;100.00
48364;BME280;34170;54.364;18.582;2022-11-20T03:12:32;99832.28;;;-3.80;100.00
48364;BME280;34170;54.364;18.582;2022-11-20T03:15:00;99831.91;;;-3.91;100.00
48364;BME280;34170;54.364;18.582;2022-11-20T03:17:27;99830.66;;;-3.83;100.00
48364;BME280;34170;54.364;18.582;2022-11-20T03:19:56;99825.63;;;-3.89;100.00
48364;BME280;34170;54.364;18.582;2022-11-20T03:22:23;99817.09;;;-3.94;100.00
48364;BME280;34170;54.364;18.582;2022-11-20T03:24:51;99815.47;;;-3.96;100.00
48364;BME280;34170;54.364;18.582;2022-11-20T03:27:18;99815.72;;;-4.03;100.00
48364;BME280;34170;54.364;18.582;2022-11-20T03:29:46;99811.91;;;-3.95;100.00
48364;BME280;34170;54.364;18.582;2022-11-20T03:32:13;99824.91;;;-3.92;100.00
48364;BME280;34170;54.364;18.582;2022-11-20T03:34:41;99825.84;;;-3.93;100.00
48364;BME280;34170;54.364;18.582;2022-11-20T03:37:08;99819.19;;;-3.81;100.00
48364;BME280;34170;54.364;18.582;2022-11-20T03:39:35;99821.00;;;-3.82;100.00
48364;BME280;34170;54.364;18.582;2022-11-20T03:42:02;99825.69;;;-3.90;100.00
48364;BME280;34170;54.364;18.582;2022-11-20T03:44:50;99813.56;;;-3.93;100.00
48364;BME280;34170;54.364;18.582;2022-11-20T03:47:17;99795.22;;;-3.94;100.00
48364;BME280;34170;54.364;18.582;2022-11-20T03:49:44;99812.97;;;-3.79;100.00
48364;BME280;34170;54.364;18.582;2022-11-20T03:52:11;99798.25;;;-3.83;100.00
48364;BME280;34170;54.364;18.582;2022-11-20T03:54:39;99809.41;;;-3.78;100.00
48364;BME280;34170;54.364;18.582;2022-11-20T03:57:06;99802.31;;;-3.76;100.00
48364;BME280;34170;54.364;18.582;2022-11-20T03:59:33;99805.34;;;-3.65;100.00
48364;BME280;34170;54.364;18.582;2022-11-20T04:02:01;99804.16;;;-3.57;100.00
48364;BME280;34170;54.364;18.582;2022-11-20T04:04:28;99802.97;;;-3.50;100.00
48364;BME280;34170;54.364;18.582;2022-11-20T04:06:55;99805.34;;;-3.65;100.00
48364;BME280;34170;54.364;18.582;2022-11-20T04:09:23;99799.69;;;-3.76;100.00
48364;BME280;34170;54.364;18.582;2022-11-20T04:11:50;99793.00;;;-3.83;100.00
48364;BME280;34170;54.364;18.582;2022-11-20T04:14:18;99808.53;;;-3.58;100.00
48364;BME280;34170;54.364;18.582;2022-11-20T04:16:45;99804.47;;;-3.65;100.00
48364;BME280;34170;54.364;18.582;2022-11-20T04:19:14;99806.34;;;-3.88;100.00
48364;BME280;34170;54.364;18.582;2022-11-20T04:21:43;99803.91;;;-3.92;100.00
48364;BME280;34170;54.364;18.582;2022-11-20T04:24:11;99804.03;;;-3.95;100.00
48364;BME280;34170;54.364;18.582;2022-11-20T04:26:38;99800.44;;;-3.93;100.00
48364;BME280;34170;54.364;18.582;2022-11-20T04:29:06;99796.22;;;-3.97;100.00
48364;BME280;34170;54.364;18.582;2022-11-20T04:31:34;99798.41;;;-3.86;100.00
48364;BME280;34170;54.364;18.582;2022-11-20T04:34:04;99786.25;;;-4.09;100.00
48364;BME280;34170;54.364;18.582;2022-11-20T04:36:33;99786.19;;;-4.08;100.00
48364;BME280;34170;54.364;18.582;2022-11-20T04:39:04;99793.13;;;-4.07;100.00
48364;BME280;34170;54.364;18.582;2022-11-20T04:41:34;99786.53;;;-4.17;100.00
48364;BME280;34170;54.364;18.582;2022-11-20T04:44:03;99797.38;;;-4.25;100.00
48364;BME280;34170;54.364;18.582;2022-11-20T04:46:32;99796.19;;;-4.38;100.00
48364;BME280;34170;54.364;18.582;2022-11-20T04:48:59;99781.41;;;-4.41;100.00
48364;BME280;34170;54.364;18.582;2022-11-20T04:51:27;99792.91;;;-4.43;100.00
48364;BME280;34170;54.364;18.582;2022-11-20T04:53:55;99786.19;;;-4.50;100.00
48364;BME280;34170;54.364;18.582;2022-11-20T04:56:22;99774.19;;;-4.56;100.00
48364;BME280;34170;54.364;18.582;2022-11-20T04:58:50;99779.78;;;-4.65;100.00
48364;BME280;34170;54.364;18.582;2022-11-20T05:01:19;99772.88;;;-4.68;100.00
48364;BME280;34170;54.364;18.582;2022-11-20T05:03:48;99778.06;;;-4.66;100.00
48364;BME280;34170;54.364;18.582;2022-11-20T05:06:17;99773.72;;;-4.67;100.00
48364;BME280;34170;54.364;18.582;2022-11-20T05:08:45;99764.97;;;-4.66;100.00
48364;BME280;34170;54.364;18.582;2022-11-20T05:11:18;99756.09;;;-4.86;100.00
48364;BME280;34170;54.364;18.582;2022-11-20T05:13:46;99768.28;;;-4.85;100.00
48364;BME280;34170;54.364;18.582;2022-11-20T05:16:17;99776.09;;;-4.83;100.00
48364;BME280;34170;54.364;18.582;2022-11-20T05:18:45;99758.59;;;-5.05;100.00
48364;BME280;34170;54.364;18.582;2022-11-20T05:21:13;99766.50;;;-5.06;100.00
48364;BME280;34170;54.364;18.582;2022-11-20T05:23:41;99756.69;;;-5.01;100.00
48364;BME280;34170;54.364;18.582;2022-11-20T05:26:17;99759.56;;;-5.07;100.00
48364;BME280;34170;54.364;18.582;2022-11-20T05:28:45;99762.50;;;-5.15;100.00
48364;BME280;34170;54.364;18.582;2022-11-20T05:31:15;99753.34;;;-5.27;100.00
48364;BME280;34170;54.364;18.582;2022-11-20T05:33:49;99760.28;;;-5.26;100.00
48364;BME280;34170;54.364;18.582;2022-11-20T05:36:17;99766.66;;;-5.33;100.00
48364;BME280;34170;54.364;18.582;2022-11-20T05:38:45;99748.66;;;-5.19;100.00
48364;BME280;34170;54.364;18.582;2022-11-20T05:41:18;99757.72;;;-5.27;100.00
48364;BME280;34170;54.364;18.582;2022-11-20T05:43:47;99744.69;;;-5.29;100.00
48364;BME280;34170;54.364;18.582;2022-11-20T05:46:16;99745.13;;;-5.41;100.00
48364;BME280;34170;54.364;18.582;2022-11-20T05:48:48;99742.28;;;-5.59;100.00
48364;BME280;34170;54.364;18.582;2022-11-20T05:51:17;99749.63;;;-5.45;100.00
48364;BME280;34170;54.364;18.582;2022-11-20T05:53:45;99751.03;;;-5.12;100.00
48364;BME280;34170;54.364;18.582;2022-11-20T05:56:17;99743.59;;;-5.23;100.00
48364;BME280;34170;54.364;18.582;2022-11-20T05:58:46;99739.44;;;-5.29;100.00
48364;BME280;34170;54.364;18.582;2022-11-20T06:01:22;99747.66;;;-5.38;100.00
48364;BME280;34170;54.364;18.582;2022-11-20T06:03:50;99745.34;;;-5.47;100.00
48364;BME280;34170;54.364;18.582;2022-11-20T06:06:19;99741.94;;;-5.49;100.00
48364;BME280;34170;54.364;18.582;2022-11-20T06:08:47;99745.50;;;-5.50;100.00
48364;BME280;34170;54.364;18.582;2022-11-20T06:11:16;99738.31;;;-5.45;100.00
48364;BME280;34170;54.364;18.582;2022-11-20T06:13:44;99743.31;;;-5.39;100.00
48364;BME280;34170;54.364;18.582;2022-11-20T06:16:13;99730.56;;;-5.48;100.00
48364;BME280;34170;54.364;18.582;2022-11-20T06:18:41;99740.19;;;-5.49;100.00
48364;BME280;34170;54.364;18.582;2022-11-20T06:21:16;99737.50;;;-5.47;100.00
48364;BME280;34170;54.364;18.582;2022-11-20T06:23:44;99743.41;;;-5.42;100.00
48364;BME280;34170;54.364;18.582;2022-11-20T06:26:14;99740.75;;;-5.41;100.00
48364;BME280;34170;54.364;18.582;2022-11-20T06:28:42;99738.19;;;-5.42;100.00
48364;BME280;34170;54.364;18.582;2022-11-20T06:31:12;99741.38;;;-5.34;100.00
48364;BME280;34170;54.364;18.582;2022-11-20T06:33:41;99741.50;;;-4.71;100.00
48364;BME280;34170;54.364;18.582;2022-11-20T06:36:10;99729.38;;;-4.73;100.00
48364;BME280;34170;54.364;18.582;2022-11-20T06:38:38;99728.22;;;-4.46;100.00
48364;BME280;34170;54.364;18.582;2022-11-20T06:41:08;99741.34;;;-4.24;100.00
48364;BME280;34170;54.364;18.582;2022-11-20T06:43:37;99738.03;;;-4.29;100.00
48364;BME280;34170;54.364;18.582;2022-11-20T06:46:04;99751.56;;;-4.38;100.00
48364;BME280;34170;54.364;18.582;2022-11-20T06:48:32;99744.19;;;-4.72;100.00
48364;BME280;34170;54.364;18.582;2022-11-20T06:50:59;99747.78;;;-4.53;100.00
48364;BME280;34170;54.364;18.582;2022-11-20T06:53:29;99749.50;;;-4.52;100.00
48364;BME280;34170;54.364;18.582;2022-11-20T06:55:57;99746.91;;;-4.11;100.00
48364;BME280;34170;54.364;18.582;2022-11-20T06:58:29;99750.69;;;-3.97;100.00
48364;BME280;34170;54.364;18.582;2022-11-20T07:01:10;99754.31;;;-4.00;100.00
48364;BME280;34170;54.364;18.582;2022-11-20T07:03:38;99761.28;;;-3.78;100.00
48364;BME280;34170;54.364;18.582;2022-11-20T07:06:06;99752.19;;;-3.71;100.00
48364;BME280;34170;54.364;18.582;2022-11-20T07:08:34;99761.69;;;-3.48;100.00
48364;BME280;34170;54.364;18.582;2022-11-20T07:11:04;99759.75;;;-3.45;100.00
48364;BME280;34170;54.364;18.582;2022-11-20T07:13:33;99760.53;;;-3.42;100.00
48364;BME280;34170;54.364;18.582;2022-11-20T07:16:02;99763.66;;;-3.53;100.00
48364;BME280;34170;54.364;18.582;2022-11-20T07:18:30;99759.59;;;-3.60;100.00
48364;BME280;34170;54.364;18.582;2022-11-20T07:21:01;99758.28;;;-3.50;100.00
48364;BME280;34170;54.364;18.582;2022-11-20T07:23:29;99763.59;;;-3.52;100.00
48364;BME280;34170;54.364;18.582;2022-11-20T07:25:56;99757.19;;;-3.46;100.00
48364;BME280;34170;54.364;18.582;2022-11-20T07:28:23;99757.00;;;-3.41;100.00
48364;BME280;34170;54.364;18.582;2022-11-20T07:30:51;99763.06;;;-3.60;100.00
48364;BME280;34170;54.364;18.582;2022-11-20T07:33:19;99749.09;;;-3.60;100.00
48364;BME280;34170;54.364;18.582;2022-11-20T07:35:47;99753.16;;;-3.53;100.00
48364;BME280;34170;54.364;18.582;2022-11-20T07:38:14;99743.91;;;-3.62;100.00
48364;BME280;34170;54.364;18.582;2022-11-20T07:40:42;99748.09;;;-3.58;100.00
48364;BME280;34170;54.364;18.582;2022-11-20T07:43:09;99751.03;;;-3.45;100.00
48364;BME280;34170;54.364;18.582;2022-11-20T07:45:36;99733.88;;;-3.35;100.00
48364;BME280;34170;54.364;18.582;2022-11-20T07:48:04;99754.16;;;-3.37;100.00
48364;BME280;34170;54.364;18.582;2022-11-20T07:50:31;99741.06;;;-3.38;100.00
48364;BME280;34170;54.364;18.582;2022-11-20T07:53:03;99745.34;;;-3.36;100.00
48364;BME280;34170;54.364;18.582;2022-11-20T07:55:32;99737.75;;;-3.23;100.00
48364;BME280;34170;54.364;18.582;2022-11-20T07:57:59;99739.44;;;-3.22;100.00
48364;BME280;34170;54.364;18.582;2022-11-20T08:00:27;99736.66;;;-3.19;100.00
48364;BME280;34170;54.364;18.582;2022-11-20T08:02:54;99742.06;;;-3.03;100.00
48364;BME280;34170;54.364;18.582;2022-11-20T08:05:22;99739.06;;;-2.95;100.00
48364;BME280;34170;54.364;18.582;2022-11-20T08:07:49;99743.19;;;-2.90;100.00
48364;BME280;34170;54.364;18.582;2022-11-20T08:10:17;99742.31;;;-2.90;100.00
48364;BME280;34170;54.364;18.582;2022-11-20T08:12:49;99738.97;;;-2.75;100.00
48364;BME280;34170;54.364;18.582;2022-11-20T08:15:37;99729.78;;;-2.66;100.00
48364;BME280;34170;54.364;18.582;2022-11-20T08:18:10;99738.91;;;-2.73;100.00
48364;BME280;34170;54.364;18.582;2022-11-20T08:21:02;99721.34;;;-2.55;100.00
48364;BME280;34170;54.364;18.582;2022-11-20T08:23:30;99726.47;;;-2.52;100.00
48364;BME280;34170;54.364;18.582;2022-11-20T08:25:57;99723.28;;;-2.59;100.00
48364;BME280;34170;54.364;18.582;2022-11-20T08:28:25;99725.84;;;-2.22;100.00
48364;BME280;34170;54.364;18.582;2022-11-20T08:30:58;99728.09;;;-2.32;100.00
48364;BME280;34170;54.364;18.582;2022-11-20T08:33:25;99722.50;;;-2.43;100.00
48364;BME280;34170;54.364;18.582;2022-11-20T08:35:52;99724.16;;;-2.23;100.00
48364;BME280;34170;54.364;18.582;2022-11-20T08:38:20;99735.13;;;-2.15;100.00
48364;BME280;34170;54.364;18.582;2022-11-20T08:40:47;99723.69;;;-2.32;100.00
48364;BME280;34170;54.364;18.582;2022-11-20T08:43:35;99733.38;;;-2.69;100.00
48364;BME280;34170;54.364;18.582;2022-11-20T08:46:02;99725.69;;;-2.91;100.00
48364;BME280;34170;54.364;18.582;2022-11-20T08:48:29;99715.94;;;-2.89;100.00
48364;BME280;34170;54.364;18.582;2022-11-20T08:50:58;99709.97;;;-3.29;100.00
48364;BME280;34170;54.364;18.582;2022-11-20T08:53:27;99716.13;;;-3.11;100.00
48364;BME280;34170;54.364;18.582;2022-11-20T08:55:56;99709.00;;;-2.90;100.00
48364;BME280;34170;54.364;18.582;2022-11-20T08:58:25;99708.28;;;-2.76;100.00
48364;BME280;34170;54.364;18.582;2022-11-20T09:00:52;99695.03;;;-2.55;100.00
48364;BME280;34170;54.364;18.582;2022-11-20T09:03:20;99713.91;;;-2.64;100.00
48364;BME280;34170;54.364;18.582;2022-11-20T09:05:47;99705.38;;;-2.35;100.00
48364;BME280;34170;54.364;18.582;2022-11-20T09:08:15;99711.81;;;-2.75;100.00
48364;BME280;34170;54.364;18.582;2022-11-20T09:10:42;99709.00;;;-2.72;100.00
48364;BME280;34170;54.364;18.582;2022-11-20T09:13:09;99695.00;;;-3.47;100.00
48364;BME280;34170;54.364;18.582;2022-11-20T09:15:36;99697.28;;;-3.20;100.00
48364;BME280;34170;54.364;18.582;2022-11-20T09:18:04;99701.16;;;-2.74;100.00
48364;BME280;34170;54.364;18.582;2022-11-20T09:20:31;99693.06;;;-2.69;100.00
48364;BME280;34170;54.364;18.582;2022-11-20T09:22:59;99678.13;;;-2.51;100.00
48364;BME280;34170;54.364;18.582;2022-11-20T09:25:26;99687.97;;;-2.37;100.00
48364;BME280;34170;54.364;18.582;2022-11-20T09:27:58;99685.94;;;-2.50;100.00
48364;BME280;34170;54.364;18.582;2022-11-20T09:30:26;99684.16;;;-2.49;100.00
48364;BME280;34170;54.364;18.582;2022-11-20T09:32:54;99672.09;;;-2.53;100.00
48364;BME280;34170;54.364;18.582;2022-11-20T09:35:21;99669.31;;;-2.67;100.00
48364;BME280;34170;54.364;18.582;2022-11-20T09:37:49;99679.69;;;-2.64;100.00
48364;BME280;34170;54.364;18.582;2022-11-20T09:40:25;99668.47;;;-2.68;100.00
48364;BME280;34170;54.364;18.582;2022-11-20T09:43:15;99672.09;;;-2.53;100.00
48364;BME280;34170;54.364;18.582;2022-11-20T09:51:28;99657.22;;;-2.72;100.00
48364;BME280;34170;54.364;18.582;2022-11-20T09:54:17;99659.00;;;-2.55;100.00
48364;BME280;34170;54.364;18.582;2022-11-20T09:56:50;99667.97;;;-2.76;100.00
48364;BME280;34170;54.364;18.582;2022-11-20T09:59:32;99662.66;;;-2.57;100.00
48364;BME280;34170;54.364;18.582;2022-11-20T10:02:02;99666.22;;;-2.41;100.00
48364;BME280;34170;54.364;18.582;2022-11-20T10:04:33;99663.31;;;-2.19;100.00
48364;BME280;34170;54.364;18.582;2022-11-20T10:07:16;99655.50;;;-1.87;100.00
48364;BME280;34170;54.364;18.582;2022-11-20T10:10:02;99648.91;;;-2.29;100.00
48364;BME280;34170;54.364;18.582;2022-11-20T10:15:27;99664.16;;;-1.85;100.00
48364;BME280;34170;54.364;18.582;2022-11-20T10:23:50;99659.63;;;-2.50;100.00
48364;BME280;34170;54.364;18.582;2022-11-20T10:29:13;99655.38;;;-2.70;100.00
48364;BME280;34170;54.364;18.582;2022-11-20T10:31:48;99645.06;;;-2.39;100.00
48364;BME280;34170;54.364;18.582;2022-11-20T10:34:38;99647.16;;;-2.28;100.00
48364;BME280;34170;54.364;18.582;2022-11-20T10:37:25;99641.00;;;-2.29;100.00
48364;BME280;34170;54.364;18.582;2022-11-20T10:39:59;99654.56;;;-2.54;100.00
48364;BME280;34170;54.364;18.582;2022-11-20T10:42:43;99644.75;;;-2.51;100.00
48364;BME280;34170;54.364;18.582;2022-11-20T10:48:04;99646.59;;;-2.70;100.00
48364;BME280;34170;54.364;18.582;2022-11-20T10:50:46;99643.81;;;-2.32;100.00
48364;BME280;34170;54.364;18.582;2022-11-20T10:56:16;99636.41;;;-2.08;100.00
48364;BME280;34170;54.364;18.582;2022-11-20T11:01:43;99625.41;;;-1.83;100.00
48364;BME280;34170;54.364;18.582;2022-11-20T11:07:16;99631.53;;;-1.03;100.00
48364;BME280;34170;54.364;18.582;2022-11-20T11:10:51;99625.06;;;-1.13;100.00
48364;BME280;34170;54.364;18.582;2022-11-20T11:12:58;99617.75;;;-1.40;100.00
48364;BME280;34170;54.364;18.582;2022-11-20T11:15:36;99614.13;;;-1.53;100.00
48364;BME280;34170;54.364;18.582;2022-11-20T11:18:04;99630.53;;;-1.64;100.00
48364;BME280;34170;54.364;18.582;2022-11-20T11:20:32;99614.13;;;-2.02;100.00
48364;BME280;34170;54.364;18.582;2022-11-20T11:22:59;99634.19;;;-2.33;100.00
48364;BME280;34170;54.364;18.582;2022-11-20T11:25:32;99624.75;;;-2.37;100.00
48364;BME280;34170;54.364;18.582;2022-11-20T11:28:17;99613.16;;;-2.51;100.00
48364;BME280;34170;54.364;18.582;2022-11-20T11:30:47;99616.47;;;-2.47;100.00
48364;BME280;34170;54.364;18.582;2022-11-20T11:33:34;99620.38;;;-2.72;100.00
48364;BME280;34170;54.364;18.582;2022-11-20T11:36:16;99604.47;;;-2.53;100.00
48364;BME280;34170;54.364;18.582;2022-11-20T11:38:45;99617.50;;;-2.84;100.00
48364;BME280;34170;54.364;18.582;2022-11-20T11:41:17;99600.91;;;-2.34;100.00
48364;BME280;34170;54.364;18.582;2022-11-20T11:43:57;99598.63;;;-2.24;100.00
48364;BME280;34170;54.364;18.582;2022-11-20T11:46:53;99606.94;;;-2.32;100.00
48364;BME280;34170;54.364;18.582;2022-11-20T11:49:22;99603.84;;;-2.40;100.00
48364;BME280;34170;54.364;18.582;2022-11-20T11:52:08;99597.03;;;-2.27;100.00
48364;BME280;34170;54.364;18.582;2022-11-20T11:54:53;99589.94;;;-2.60;100.00
48364;BME280;34170;54.364;18.582;2022-11-20T12:00:13;99594.13;;;-2.73;100.00
48364;BME280;34170;54.364;18.582;2022-11-20T12:05:38;99582.38;;;-2.66;100.00
48364;BME280;34170;54.364;18.582;2022-11-20T12:08:36;99580.34;;;-2.78;100.00
48364;BME280;34170;54.364;18.582;2022-11-20T12:11:24;99575.78;;;-2.75;100.00
48364;BME280;34170;54.364;18.582;2022-11-20T12:14:17;99573.56;;;-2.82;100.00
48364;BME280;34170;54.364;18.582;2022-11-20T12:16:46;99572.09;;;-2.37;100.00
48364;BME280;34170;54.364;18.582;2022-11-20T12:19:14;99570.06;;;-2.32;100.00
48364;BME280;34170;54.364;18.582;2022-11-20T12:24:50;99571.69;;;-2.63;100.00
48364;BME280;34170;54.364;18.582;2022-11-20T12:30:07;99554.38;;;-2.51;100.00
48364;BME280;34170;54.364;18.582;2022-11-20T12:45:18;99533.00;;;-2.45;100.00
48364;BME280;34170;54.364;18.582;2022-11-20T12:56:24;99529.16;;;-2.55;100.00
48364;BME280;34170;54.364;18.582;2022-11-20T12:59:14;99534.81;;;-2.63;100.00
48364;BME280;34170;54.364;18.582;2022-11-20T13:01:51;99527.22;;;-2.69;100.00
48364;BME280;34170;54.364;18.582;2022-11-20T13:07:15;99508.50;;;-2.47;100.00
48364;BME280;34170;54.364;18.582;2022-11-20T13:09:45;99523.09;;;-2.24;100.00
48364;BME280;34170;54.364;18.582;2022-11-20T13:12:27;99492.53;;;-2.60;100.00
48364;BME280;34170;54.364;18.582;2022-11-20T13:15:05;99504.22;;;-2.65;100.00
48364;BME280;34170;54.364;18.582;2022-11-20T13:17:41;99510.22;;;-2.46;100.00
48364;BME280;34170;54.364;18.582;2022-11-20T13:20:16;99504.16;;;-2.31;100.00
48364;BME280;34170;54.364;18.582;2022-11-20T13:27:56;99513.63;;;-2.44;100.00
48364;BME280;34170;54.364;18.582;2022-11-20T13:30:28;99502.91;;;-2.57;100.00
48364;BME280;34170;54.364;18.582;2022-11-20T13:35:54;99501.38;;;-2.61;100.00
48364;BME280;34170;54.364;18.582;2022-11-20T13:38:21;99499.03;;;-2.67;100.00
48364;BME280;34170;54.364;18.582;2022-11-20T13:40:55;99486.03;;;-2.70;100.00
48364;BME280;34170;54.364;18.582;2022-11-20T13:43:35;99488.03;;;-2.58;100.00
48364;BME280;34170;54.364;18.582;2022-11-20T13:46:06;99489.19;;;-2.63;100.00
48364;BME280;34170;54.364;18.582;2022-11-20T13:48:41;99496.38;;;-2.50;100.00
48364;BME280;34170;54.364;18.582;2022-11-20T13:51:28;99486.25;;;-2.57;100.00
48364;BME280;34170;54.364;18.582;2022-11-20T13:54:22;99495.47;;;-2.48;100.00
48364;BME280;34170;54.364;18.582;2022-11-20T14:02:23;99485.13;;;-2.69;100.00
48364;BME280;34170;54.364;18.582;2022-11-20T14:04:53;99475.28;;;-2.65;100.00
48364;BME280;34170;54.364;18.582;2022-11-20T14:07:31;99485.03;;;-2.67;100.00
48364;BME280;34170;54.364;18.582;2022-11-20T14:10:02;99469.56;;;-2.74;100.00
48364;BME280;34170;54.364;18.582;2022-11-20T14:12:32;99463.28;;;-2.71;100.00
48364;BME280;34170;54.364;18.582;2022-11-20T14:14:59;99475.19;;;-2.64;100.00
48364;BME280;34170;54.364;18.582;2022-11-20T14:17:33;99460.78;;;-2.57;100.00
48364;BME280;34170;54.364;18.582;2022-11-20T14:20:05;99466.47;;;-2.64;100.00
48364;BME280;34170;54.364;18.582;2022-11-20T14:22:33;99477.06;;;-2.66;100.00